<?xml version='1.0' encoding='UTF-8'?><gpx version="1.1" creator="JPX - https://github.com/jenetics/jpx" xmlns="http://www.topografix.com/GPX/1/1"><trk><trkseg><trkpt lat="45.67605359575231" lon="9.802788992670518"><ele>227.0</ele><time>2026-04-28T17:06:26.004Z</time></trkpt><trkpt lat="45.67598192036375" lon="9.802760077059048"><ele>227.00000000000003</ele><time>2026-04-28T17:06:31.003Z</time></trkpt><trkpt lat="45.67590685463222" lon="9.8027277350478"><ele>227.0</ele><time>2026-04-28T17:06:36.003Z</time></trkpt><trkpt lat="45.67583394724909" lon="9.802707076094068"><ele>227.0</ele><time>2026-04-28T17:06:41.002Z</time></trkpt><trkpt lat="45.67576596259104" lon="9.80270105107537"><ele>227.00000000000003</ele><time>2026-04-28T17:06:45.002Z</time></trkpt><trkpt lat="45.67570236297816" lon="9.802686544003793"><ele>227.0</ele><time>2026-04-28T17:06:49.001Z</time></trkpt><trkpt lat="45.675629644323074" lon="9.802667957767742"><ele>227.0</ele><time>2026-04-28T17:06:54.001Z</time></trkpt><trkpt lat="45.675566830117276" lon="9.80270432019961"><ele>227.0</ele><time>2026-04-28T17:06:59.001Z</time></trkpt><trkpt lat="45.6755466435856" lon="9.802792055884401"><ele>227.00000000000003</ele><time>2026-04-28T17:07:03.001Z</time></trkpt><trkpt lat="45.67551953869049" lon="9.802873876996637"><ele>227.0</ele><time>2026-04-28T17:07:07.001Z</time></trkpt><trkpt lat="45.67549472138683" lon="9.802957374922507"><ele>227.0</ele><time>2026-04-28T17:07:11Z</time></trkpt><trkpt lat="45.67547034154406" lon="9.803043904427186"><ele>227.00000000000003</ele><time>2026-04-28T17:07:15Z</time></trkpt><trkpt lat="45.67544209152564" lon="9.803133243617749"><ele>227.0</ele><time>2026-04-28T17:07:19Z</time></trkpt><trkpt lat="45.675413451182806" lon="9.803221280300146"><ele>227.0</ele><time>2026-04-28T17:07:23Z</time></trkpt><trkpt lat="45.675390852360685" lon="9.803312053503452"><ele>227.0</ele><time>2026-04-28T17:07:27Z</time></trkpt><trkpt lat="45.675364585129515" lon="9.803402524238946"><ele>227.00000000000003</ele><time>2026-04-28T17:07:31Z</time></trkpt><trkpt lat="45.67542643345151" lon="9.803455842125553"><ele>227.0</ele><time>2026-04-28T17:07:36Z</time></trkpt><trkpt lat="45.67549676831337" lon="9.803511488577511"><ele>227.0</ele><time>2026-04-28T17:07:40Z</time></trkpt><trkpt lat="45.67556567010914" lon="9.80351677858131"><ele>227.00000000000003</ele><time>2026-04-28T17:07:43Z</time></trkpt><trkpt lat="45.675635130786624" lon="9.803521663232868"><ele>227.0</ele><time>2026-04-28T17:07:46Z</time></trkpt><trkpt lat="45.67571607867272" lon="9.803572041822537"><ele>227.0</ele><time>2026-04-28T17:07:49Z</time></trkpt><trkpt lat="45.67580239229895" lon="9.803590219865916"><ele>227.2857142857143</ele><time>2026-04-28T17:07:51Z</time></trkpt><trkpt lat="45.675883229410545" lon="9.803605946548187"><ele>227.5714285714286</ele><time>2026-04-28T17:07:53Z</time></trkpt><trkpt lat="45.675945358923045" lon="9.80362386249476"><ele>227.85714285714286</ele><time>2026-04-28T17:07:55Z</time></trkpt><trkpt lat="45.67601256792697" lon="9.803654164379305"><ele>228.14285714285717</ele><time>2026-04-28T17:07:58Z</time></trkpt><trkpt lat="45.67608806660521" lon="9.803689058343085"><ele>228.42857142857144</ele><time>2026-04-28T17:08:00Z</time></trkpt><trkpt lat="45.6761535124982" lon="9.803692568108822"><ele>228.71428571428572</ele><time>2026-04-28T17:08:02Z</time></trkpt><trkpt lat="45.676228931856585" lon="9.803682303549934"><ele>229.0</ele><time>2026-04-28T17:08:04Z</time></trkpt><trkpt lat="45.67630093588639" lon="9.803724651409635"><ele>229.16666666666666</ele><time>2026-04-28T17:08:07Z</time></trkpt><trkpt lat="45.67637655321752" lon="9.803747768102603"><ele>229.33333333333331</ele><time>2026-04-28T17:08:09Z</time></trkpt><trkpt lat="45.67647220462988" lon="9.803767385889017"><ele>229.5</ele><time>2026-04-28T17:08:13Z</time></trkpt><trkpt lat="45.67655168041669" lon="9.803797361016187"><ele>229.66666666666669</ele><time>2026-04-28T17:08:16Z</time></trkpt><trkpt lat="45.67663567351622" lon="9.803793349104565"><ele>229.83333333333334</ele><time>2026-04-28T17:08:19Z</time></trkpt><trkpt lat="45.67670044285913" lon="9.803779325984138"><ele>230.0</ele><time>2026-04-28T17:08:21Z</time></trkpt><trkpt lat="45.676782882530695" lon="9.80379467707755"><ele>229.99999999999997</ele><time>2026-04-28T17:08:24.001Z</time></trkpt><trkpt lat="45.676850697780694" lon="9.803814798208"><ele>230.0</ele><time>2026-04-28T17:08:26.001Z</time></trkpt><trkpt lat="45.67691454550163" lon="9.803810371023015"><ele>229.99999999999997</ele><time>2026-04-28T17:08:28.001Z</time></trkpt><trkpt lat="45.676978840098364" lon="9.803824083251943"><ele>229.99999999999997</ele><time>2026-04-28T17:08:30.001Z</time></trkpt><trkpt lat="45.677054520626" lon="9.8038351841819"><ele>230.0</ele><time>2026-04-28T17:08:33.001Z</time></trkpt><trkpt lat="45.67712287073533" lon="9.803868005633552"><ele>229.99999999999997</ele><time>2026-04-28T17:08:36.001Z</time></trkpt><trkpt lat="45.677189281236345" lon="9.803927264273078"><ele>229.99999999999997</ele><time>2026-04-28T17:08:39.001Z</time></trkpt><trkpt lat="45.67724691919091" lon="9.80402056550516"><ele>230.00000000000003</ele><time>2026-04-28T17:08:42.001Z</time></trkpt><trkpt lat="45.677292961164056" lon="9.804126992458356"><ele>230.0</ele><time>2026-04-28T17:08:44.001Z</time></trkpt><trkpt lat="45.67735286613555" lon="9.804199608291176"><ele>230.0</ele><time>2026-04-28T17:08:46.001Z</time></trkpt><trkpt lat="45.67741075852968" lon="9.804265859018177"><ele>230.0</ele><time>2026-04-28T17:08:48Z</time></trkpt><trkpt lat="45.677488130860986" lon="9.804328440464182"><ele>230.00000000000003</ele><time>2026-04-28T17:08:51Z</time></trkpt><trkpt lat="45.677546568071506" lon="9.804370383584283"><ele>230.0</ele><time>2026-04-28T17:08:53Z</time></trkpt><trkpt lat="45.677632442830586" lon="9.804420371541376"><ele>229.83333333333334</ele><time>2026-04-28T17:08:56Z</time></trkpt><trkpt lat="45.67771862777858" lon="9.80444716838012"><ele>229.66666666666669</ele><time>2026-04-28T17:08:59Z</time></trkpt><trkpt lat="45.677781180099664" lon="9.804471790984179"><ele>229.5</ele><time>2026-04-28T17:09:01Z</time></trkpt><trkpt lat="45.67785518704439" lon="9.804472649691975"><ele>229.33333333333331</ele><time>2026-04-28T17:09:04Z</time></trkpt><trkpt lat="45.677936931045465" lon="9.804477715844419"><ele>229.16666666666666</ele><time>2026-04-28T17:09:07Z</time></trkpt><trkpt lat="45.678026510968415" lon="9.804478023047643"><ele>229.0</ele><time>2026-04-28T17:09:10Z</time></trkpt><trkpt lat="45.678090133863016" lon="9.804463740808309"><ele>229.49999999999997</ele><time>2026-04-28T17:09:12Z</time></trkpt><trkpt lat="45.67815880510277" lon="9.804486614633792"><ele>230.0</ele><time>2026-04-28T17:09:14Z</time></trkpt><trkpt lat="45.678240064266966" lon="9.804537418187756"><ele>230.5</ele><time>2026-04-28T17:09:17Z</time></trkpt><trkpt lat="45.678303258910944" lon="9.804582759958171"><ele>231.0</ele><time>2026-04-28T17:09:19Z</time></trkpt><trkpt lat="45.67836704439672" lon="9.804607905061093"><ele>231.49999999999997</ele><time>2026-04-28T17:09:21Z</time></trkpt><trkpt lat="45.678452373304644" lon="9.804597123841155"><ele>232.0</ele><time>2026-04-28T17:09:24Z</time></trkpt><trkpt lat="45.67852911844657" lon="9.804604209689435"><ele>231.83333333333331</ele><time>2026-04-28T17:09:27Z</time></trkpt><trkpt lat="45.67861696762023" lon="9.804608267971224"><ele>231.66666666666666</ele><time>2026-04-28T17:09:30Z</time></trkpt><trkpt lat="45.67870778842211" lon="9.804613103150052"><ele>231.5</ele><time>2026-04-28T17:09:33Z</time></trkpt><trkpt lat="45.678790590728795" lon="9.804622782358214"><ele>231.33333333333331</ele><time>2026-04-28T17:09:35Z</time></trkpt><trkpt lat="45.678861792784055" lon="9.80463995268623"><ele>231.16666666666666</ele><time>2026-04-28T17:09:37Z</time></trkpt><trkpt lat="45.678936556354145" lon="9.804648009952906"><ele>231.0</ele><time>2026-04-28T17:09:40Z</time></trkpt><trkpt lat="45.67901814784547" lon="9.804647129602706"><ele>231.0</ele><time>2026-04-28T17:09:43Z</time></trkpt><trkpt lat="45.679095258316" lon="9.804654612146946"><ele>231.0</ele><time>2026-04-28T17:09:46Z</time></trkpt><trkpt lat="45.67918193036069" lon="9.804638924640086"><ele>231.0</ele><time>2026-04-28T17:09:49Z</time></trkpt><trkpt lat="45.67926396266461" lon="9.804638985625107"><ele>231.0</ele><time>2026-04-28T17:09:52Z</time></trkpt><trkpt lat="45.67933468623378" lon="9.804656881062959"><ele>231.0</ele><time>2026-04-28T17:09:54Z</time></trkpt><trkpt lat="45.67941030526126" lon="9.80470035261822"><ele>231.0</ele><time>2026-04-28T17:09:57Z</time></trkpt><trkpt lat="45.679474024765064" lon="9.80472139104483"><ele>231.5</ele><time>2026-04-28T17:09:59Z</time></trkpt><trkpt lat="45.67955862885524" lon="9.804751625332601"><ele>232.0</ele><time>2026-04-28T17:10:02Z</time></trkpt><trkpt lat="45.67962936028483" lon="9.804777564082748"><ele>232.5</ele><time>2026-04-28T17:10:05Z</time></trkpt><trkpt lat="45.67969712756976" lon="9.804776611841397"><ele>233.0</ele><time>2026-04-28T17:10:07Z</time></trkpt><trkpt lat="45.679777609974906" lon="9.804820399489003"><ele>233.5</ele><time>2026-04-28T17:10:10Z</time></trkpt><trkpt lat="45.67983966053035" lon="9.804871062398414"><ele>234.0</ele><time>2026-04-28T17:10:12Z</time></trkpt><trkpt lat="45.67990796607692" lon="9.804973691806664"><ele>234.0</ele><time>2026-04-28T17:10:15Z</time></trkpt><trkpt lat="45.67997742812068" lon="9.8050677988835"><ele>234.0</ele><time>2026-04-28T17:10:18Z</time></trkpt><trkpt lat="45.6800097122957" lon="9.805145836739234"><ele>234.0</ele><time>2026-04-28T17:10:20Z</time></trkpt><trkpt lat="45.680031436612225" lon="9.80523645929923"><ele>234.0</ele><time>2026-04-28T17:10:22Z</time></trkpt><trkpt lat="45.68003255753844" lon="9.805368550188424"><ele>234.0</ele><time>2026-04-28T17:10:25Z</time></trkpt><trkpt lat="45.68003828060286" lon="9.805470755276753"><ele>234.0</ele><time>2026-04-28T17:10:28.001Z</time></trkpt><trkpt lat="45.680031665164556" lon="9.80558042373538"><ele>233.66666666666666</ele><time>2026-04-28T17:10:31.001Z</time></trkpt><trkpt lat="45.680032311127654" lon="9.805687537469025"><ele>233.33333333333331</ele><time>2026-04-28T17:10:34.001Z</time></trkpt><trkpt lat="45.68003456197116" lon="9.805803090675102"><ele>233.0</ele><time>2026-04-28T17:10:37.001Z</time></trkpt><trkpt lat="45.68004992563338" lon="9.805913333930958"><ele>232.66666666666666</ele><time>2026-04-28T17:10:40.001Z</time></trkpt><trkpt lat="45.68007476825931" lon="9.805794729232629"><ele>232.33333333333331</ele><time>2026-04-28T17:10:45.001Z</time></trkpt><trkpt lat="45.68008113036202" lon="9.805699971389878"><ele>232.0</ele><time>2026-04-28T17:10:48.001Z</time></trkpt><trkpt lat="45.68010215708075" lon="9.80560254077242"><ele>231.99999999999997</ele><time>2026-04-28T17:10:51.001Z</time></trkpt><trkpt lat="45.68009960130325" lon="9.805481729874165"><ele>232.0</ele><time>2026-04-28T17:10:54Z</time></trkpt><trkpt lat="45.68010248191314" lon="9.805355700565586"><ele>232.0</ele><time>2026-04-28T17:10:57Z</time></trkpt><trkpt lat="45.68017564141107" lon="9.80524960928192"><ele>232.0</ele><time>2026-04-28T17:11:03Z</time></trkpt><trkpt lat="45.68024596637384" lon="9.805206050800827"><ele>231.99999999999997</ele><time>2026-04-28T17:11:05Z</time></trkpt><trkpt lat="45.68026251029349" lon="9.805117869217337"><ele>232.0</ele><time>2026-04-28T17:11:07Z</time></trkpt><trkpt lat="45.6802512408508" lon="9.8050268383602"><ele>232.33333333333331</ele><time>2026-04-28T17:11:10Z</time></trkpt><trkpt lat="45.680234769814355" lon="9.804922004670026"><ele>232.66666666666666</ele><time>2026-04-28T17:11:13Z</time></trkpt><trkpt lat="45.68022013379843" lon="9.804799048180975"><ele>233.0</ele><time>2026-04-28T17:11:16Z</time></trkpt><trkpt lat="45.680210578374144" lon="9.804707497503852"><ele>233.33333333333331</ele><time>2026-04-28T17:11:19Z</time></trkpt><trkpt lat="45.68022847787625" lon="9.804597423934815"><ele>233.66666666666666</ele><time>2026-04-28T17:11:23Z</time></trkpt><trkpt lat="45.680236757579806" lon="9.804493048088329"><ele>234.0</ele><time>2026-04-28T17:11:26Z</time></trkpt><trkpt lat="45.6802317488529" lon="9.804390357302944"><ele>234.14285714285717</ele><time>2026-04-28T17:11:30Z</time></trkpt><trkpt lat="45.68029270598971" lon="9.804422237124271"><ele>234.2857142857143</ele><time>2026-04-28T17:11:34Z</time></trkpt><trkpt lat="45.68035126790032" lon="9.804456099187071"><ele>234.42857142857144</ele><time>2026-04-28T17:11:37Z</time></trkpt><trkpt lat="45.680427948379" lon="9.804494787320946"><ele>234.57142857142856</ele><time>2026-04-28T17:11:41Z</time></trkpt><trkpt lat="45.6805018526593" lon="9.80453083887891"><ele>234.7142857142857</ele><time>2026-04-28T17:11:44Z</time></trkpt><trkpt lat="45.68057706567197" lon="9.804547662196981"><ele>234.85714285714283</ele><time>2026-04-28T17:11:46Z</time></trkpt><trkpt lat="45.680654125604526" lon="9.804570607745966"><ele>235.0</ele><time>2026-04-28T17:11:50Z</time></trkpt><trkpt lat="45.68071706747852" lon="9.804605408885728"><ele>235.0</ele><time>2026-04-28T17:11:54Z</time></trkpt><trkpt lat="45.680782193968874" lon="9.80465536244731"><ele>234.99999999999997</ele><time>2026-04-28T17:11:58Z</time></trkpt><trkpt lat="45.68084352275819" lon="9.804679680167558"><ele>235.0</ele><time>2026-04-28T17:12:02Z</time></trkpt><trkpt lat="45.68088879922077" lon="9.804750154057162"><ele>235.0</ele><time>2026-04-28T17:12:06Z</time></trkpt><trkpt lat="45.68093143550526" lon="9.804824346252511"><ele>234.99999999999997</ele><time>2026-04-28T17:12:11Z</time></trkpt><trkpt lat="45.68099209666281" lon="9.804898009847218"><ele>235.0</ele><time>2026-04-28T17:12:15Z</time></trkpt><trkpt lat="45.68104444104877" lon="9.804982122545718"><ele>235.0</ele><time>2026-04-28T17:12:20Z</time></trkpt><trkpt lat="45.68107595842178" lon="9.80508873078808"><ele>235.0</ele><time>2026-04-28T17:12:24.999Z</time></trkpt><trkpt lat="45.68109811671358" lon="9.805192885392689"><ele>234.99999999999997</ele><time>2026-04-28T17:12:29.999Z</time></trkpt><trkpt lat="45.68113676034652" lon="9.80526509121933"><ele>235.0</ele><time>2026-04-28T17:12:34.001Z</time></trkpt><trkpt lat="45.68118899947778" lon="9.805331789993831"><ele>235.0</ele><time>2026-04-28T17:12:39.001Z</time></trkpt><trkpt lat="45.68126002569801" lon="9.805371109167304"><ele>234.99999999999997</ele><time>2026-04-28T17:12:44.001Z</time></trkpt><trkpt lat="45.68132500532843" lon="9.805368242498774"><ele>235.0</ele><time>2026-04-28T17:12:48.001Z</time></trkpt><trkpt lat="45.681389683494906" lon="9.805369874408761"><ele>235.0</ele><time>2026-04-28T17:12:52.001Z</time></trkpt><trkpt lat="45.681472509231234" lon="9.805376425690872"><ele>234.99999999999997</ele><time>2026-04-28T17:12:56Z</time></trkpt><trkpt lat="45.68155369354938" lon="9.805365286558171"><ele>235.0</ele><time>2026-04-28T17:12:59Z</time></trkpt><trkpt lat="45.68163617809451" lon="9.805352172247138"><ele>235.0</ele><time>2026-04-28T17:13:02Z</time></trkpt><trkpt lat="45.68171422965269" lon="9.80532701359725"><ele>235.0</ele><time>2026-04-28T17:13:05Z</time></trkpt><trkpt lat="45.68178197613121" lon="9.805301280108198"><ele>234.99999999999997</ele><time>2026-04-28T17:13:08Z</time></trkpt><trkpt lat="45.681709601369725" lon="9.80532804187699"><ele>235.0</ele><time>2026-04-28T17:13:16Z</time></trkpt><trkpt lat="45.68164327363111" lon="9.80538850550434"><ele>234.99999999999997</ele><time>2026-04-28T17:13:19Z</time></trkpt><trkpt lat="45.68173987769609" lon="9.805369562111814"><ele>235.0</ele><time>2026-04-28T17:13:23Z</time></trkpt><trkpt lat="45.68181306828877" lon="9.80538251110126"><ele>235.0</ele><time>2026-04-28T17:13:26Z</time></trkpt><trkpt lat="45.68188231441094" lon="9.80537985632456"><ele>235.0</ele><time>2026-04-28T17:13:29Z</time></trkpt><trkpt lat="45.68194738211341" lon="9.805404829627186"><ele>234.99999999999997</ele><time>2026-04-28T17:13:34Z</time></trkpt><trkpt lat="45.68202452793507" lon="9.805380745966866"><ele>235.0</ele><time>2026-04-28T17:13:39Z</time></trkpt><trkpt lat="45.68209445874451" lon="9.80536533031344"><ele>235.5</ele><time>2026-04-28T17:13:48Z</time></trkpt><trkpt lat="45.68204734725672" lon="9.805440797112318"><ele>236.0</ele><time>2026-04-28T17:13:59Z</time></trkpt><trkpt lat="45.682074542706744" lon="9.805234285525705"><ele>236.5</ele><time>2026-04-28T17:14:13.066Z</time></trkpt><trkpt lat="45.682226067423706" lon="9.805142506269528"><ele>237.0</ele><time>2026-04-28T17:14:18Z</time></trkpt><trkpt lat="45.68224811580257" lon="9.805048871696085"><ele>237.0</ele><time>2026-04-28T17:14:20Z</time></trkpt><trkpt lat="45.68234414732805" lon="9.805021476453035"><ele>237.0</ele><time>2026-04-28T17:14:23Z</time></trkpt><trkpt lat="45.68243728242601" lon="9.80502827181745"><ele>237.0</ele><time>2026-04-28T17:14:25.999Z</time></trkpt><trkpt lat="45.68249479244117" lon="9.805070895828747"><ele>237.0</ele><time>2026-04-28T17:14:28.999Z</time></trkpt><trkpt lat="45.68257083947547" lon="9.805150275832"><ele>237.0</ele><time>2026-04-28T17:14:31.999Z</time></trkpt><trkpt lat="45.68260365480506" lon="9.805229042421733"><ele>237.0</ele><time>2026-04-28T17:14:33.999Z</time></trkpt><trkpt lat="45.68266907499863" lon="9.805320553058811"><ele>237.0</ele><time>2026-04-28T17:14:36.999Z</time></trkpt><trkpt lat="45.6827373756243" lon="9.805374607653802"><ele>237.0</ele><time>2026-04-28T17:14:40.001Z</time></trkpt><trkpt lat="45.68281843868744" lon="9.805415483178265"><ele>237.0</ele><time>2026-04-28T17:14:43.001Z</time></trkpt><trkpt lat="45.6828929688876" lon="9.805435118399226"><ele>237.0</ele><time>2026-04-28T17:14:46.001Z</time></trkpt><trkpt lat="45.68297740988093" lon="9.805460891696963"><ele>237.0</ele><time>2026-04-28T17:14:49Z</time></trkpt><trkpt lat="45.68306618338219" lon="9.80547627957283"><ele>237.0</ele><time>2026-04-28T17:14:52Z</time></trkpt><trkpt lat="45.683128759098295" lon="9.805490131893418"><ele>237.0</ele><time>2026-04-28T17:14:54Z</time></trkpt><trkpt lat="45.68321385855608" lon="9.805500369137244"><ele>237.0</ele><time>2026-04-28T17:14:57Z</time></trkpt><trkpt lat="45.68329355832999" lon="9.80553648939666"><ele>237.0</ele><time>2026-04-28T17:15:00Z</time></trkpt><trkpt lat="45.68336169607475" lon="9.80553999042575"><ele>237.0</ele><time>2026-04-28T17:15:02Z</time></trkpt><trkpt lat="45.683444921670336" lon="9.805575594985289"><ele>237.0</ele><time>2026-04-28T17:15:05Z</time></trkpt><trkpt lat="45.68352705878179" lon="9.805624175729813"><ele>237.0</ele><time>2026-04-28T17:15:08Z</time></trkpt><trkpt lat="45.68360180735224" lon="9.805668701972376"><ele>237.16666666666666</ele><time>2026-04-28T17:15:11Z</time></trkpt><trkpt lat="45.68368691194937" lon="9.80569980378814"><ele>237.33333333333331</ele><time>2026-04-28T17:15:14Z</time></trkpt><trkpt lat="45.68377466876188" lon="9.80574398306448"><ele>237.5</ele><time>2026-04-28T17:15:17Z</time></trkpt><trkpt lat="45.68385352653011" lon="9.805786853322179"><ele>237.66666666666666</ele><time>2026-04-28T17:15:20Z</time></trkpt><trkpt lat="45.68394990328958" lon="9.805815563860257"><ele>237.83333333333331</ele><time>2026-04-28T17:15:23Z</time></trkpt><trkpt lat="45.684020240898676" lon="9.805866586656991"><ele>238.0</ele><time>2026-04-28T17:15:26Z</time></trkpt><trkpt lat="45.684102348144094" lon="9.805915038908944"><ele>237.99999999999997</ele><time>2026-04-28T17:15:29Z</time></trkpt><trkpt lat="45.68417958595534" lon="9.80595123351747"><ele>238.0</ele><time>2026-04-28T17:15:32Z</time></trkpt><trkpt lat="45.68424194031486" lon="9.805974268281119"><ele>238.0</ele><time>2026-04-28T17:15:34Z</time></trkpt><trkpt lat="45.6843081536049" lon="9.806005997558374"><ele>238.0</ele><time>2026-04-28T17:15:37Z</time></trkpt><trkpt lat="45.68438200137238" lon="9.806034466178337"><ele>237.99999999999997</ele><time>2026-04-28T17:15:40Z</time></trkpt><trkpt lat="45.68445501762464" lon="9.806063227302891"><ele>238.0</ele><time>2026-04-28T17:15:44Z</time></trkpt><trkpt lat="45.684541978908655" lon="9.806103794722308"><ele>238.0</ele><time>2026-04-28T17:15:46Z</time></trkpt><trkpt lat="45.684547395707966" lon="9.80621133623879"><ele>238.0</ele><time>2026-04-28T17:15:50Z</time></trkpt><trkpt lat="45.68455423752559" lon="9.806304976045034"><ele>238.0</ele><time>2026-04-28T17:15:54Z</time></trkpt><trkpt lat="45.6845561302936" lon="9.80628620083512"><ele>238.0</ele><time>2026-04-28T17:17:22Z</time></trkpt><trkpt lat="45.684562981829764" lon="9.806191957727743"><ele>238.0</ele><time>2026-04-28T17:17:26Z</time></trkpt><trkpt lat="45.684551725867834" lon="9.806098140508274"><ele>238.0</ele><time>2026-04-28T17:17:30Z</time></trkpt><trkpt lat="45.684503153175996" lon="9.80603647857987"><ele>238.0</ele><time>2026-04-28T17:17:42Z</time></trkpt><trkpt lat="45.68443722128177" lon="9.806039018356444"><ele>238.0</ele><time>2026-04-28T17:18:03.999Z</time></trkpt><trkpt lat="45.68434828905015" lon="9.806017163745818"><ele>237.99999999999997</ele><time>2026-04-28T17:18:25.999Z</time></trkpt><trkpt lat="45.684290561292535" lon="9.8059460173039"><ele>238.0</ele><time>2026-04-28T17:18:28.999Z</time></trkpt><trkpt lat="45.68422556952474" lon="9.805921471719575"><ele>238.0</ele><time>2026-04-28T17:18:31.999Z</time></trkpt><trkpt lat="45.68413649270587" lon="9.805932794704022"><ele>238.0</ele><time>2026-04-28T17:18:35.999Z</time></trkpt><trkpt lat="45.684066087355546" lon="9.805901477627593"><ele>237.99999999999997</ele><time>2026-04-28T17:18:38.999Z</time></trkpt><trkpt lat="45.68400411089875" lon="9.80588511734303"><ele>238.0</ele><time>2026-04-28T17:18:40.999Z</time></trkpt><trkpt lat="45.683925147126764" lon="9.805826528180075"><ele>237.99999999999997</ele><time>2026-04-28T17:18:43.999Z</time></trkpt><trkpt lat="45.68384265310138" lon="9.805786356060112"><ele>238.0</ele><time>2026-04-28T17:18:46.999Z</time></trkpt><trkpt lat="45.683771407236854" lon="9.805769269442052"><ele>238.0</ele><time>2026-04-28T17:18:48.999Z</time></trkpt><trkpt lat="45.68369581456446" lon="9.805712676341503"><ele>238.0</ele><time>2026-04-28T17:18:52Z</time></trkpt><trkpt lat="45.68362576479957" lon="9.805701506922258"><ele>237.99999999999997</ele><time>2026-04-28T17:18:55Z</time></trkpt><trkpt lat="45.68357324224084" lon="9.80564766603408"><ele>238.0</ele><time>2026-04-28T17:18:57Z</time></trkpt><trkpt lat="45.683488172917585" lon="9.805620830806967"><ele>237.83333333333331</ele><time>2026-04-28T17:19:00Z</time></trkpt><trkpt lat="45.68340181328784" lon="9.80557725495607"><ele>237.66666666666666</ele><time>2026-04-28T17:19:03Z</time></trkpt><trkpt lat="45.683326222703805" lon="9.805543156677688"><ele>237.5</ele><time>2026-04-28T17:19:06Z</time></trkpt><trkpt lat="45.6832476170492" lon="9.805507222158939"><ele>237.33333333333331</ele><time>2026-04-28T17:19:09Z</time></trkpt><trkpt lat="45.68318440662482" lon="9.805495980654063"><ele>237.16666666666666</ele><time>2026-04-28T17:19:11Z</time></trkpt><trkpt lat="45.68310776916286" lon="9.805472024596328"><ele>237.0</ele><time>2026-04-28T17:19:14Z</time></trkpt><trkpt lat="45.68303346843875" lon="9.805459641945543"><ele>236.99999999999997</ele><time>2026-04-28T17:19:17Z</time></trkpt><trkpt lat="45.682965551112886" lon="9.805461793686899"><ele>237.0</ele><time>2026-04-28T17:19:19Z</time></trkpt><trkpt lat="45.68288895067853" lon="9.805463103481"><ele>236.99999999999997</ele><time>2026-04-28T17:19:21Z</time></trkpt><trkpt lat="45.682820821586226" lon="9.805435424624159"><ele>236.99999999999997</ele><time>2026-04-28T17:19:24Z</time></trkpt><trkpt lat="45.68276097231483" lon="9.805393945814373"><ele>237.0</ele><time>2026-04-28T17:19:26Z</time></trkpt><trkpt lat="45.68268357827479" lon="9.805339029618887"><ele>236.99999999999997</ele><time>2026-04-28T17:19:29Z</time></trkpt><trkpt lat="45.682630486482275" lon="9.805284520036322"><ele>236.99999999999997</ele><time>2026-04-28T17:19:32Z</time></trkpt><trkpt lat="45.682585259346084" lon="9.805176954658432"><ele>236.99999999999997</ele><time>2026-04-28T17:19:35Z</time></trkpt><trkpt lat="45.682524186741794" lon="9.805101399082423"><ele>237.0</ele><time>2026-04-28T17:19:38Z</time></trkpt><trkpt lat="45.68245927983899" lon="9.805073342528216"><ele>236.99999999999997</ele><time>2026-04-28T17:19:40Z</time></trkpt><trkpt lat="45.68239565871403" lon="9.805043425634913"><ele>236.99999999999997</ele><time>2026-04-28T17:19:42Z</time></trkpt><trkpt lat="45.68232405369609" lon="9.805028766554855"><ele>237.0</ele><time>2026-04-28T17:19:45Z</time></trkpt><trkpt lat="45.68225338833013" lon="9.80504910915006"><ele>236.99999999999997</ele><time>2026-04-28T17:19:48Z</time></trkpt><trkpt lat="45.6821729970348" lon="9.805078396165252"><ele>236.99999999999997</ele><time>2026-04-28T17:19:51Z</time></trkpt><trkpt lat="45.682089115968935" lon="9.805114718407722"><ele>236.99999999999997</ele><time>2026-04-28T17:19:54Z</time></trkpt><trkpt lat="45.6820263324467" lon="9.805142148710015"><ele>237.0</ele><time>2026-04-28T17:19:56Z</time></trkpt><trkpt lat="45.68193803508212" lon="9.805162826230426"><ele>236.99999999999997</ele><time>2026-04-28T17:19:59Z</time></trkpt><trkpt lat="45.68184921945076" lon="9.805179235315864"><ele>236.99999999999997</ele><time>2026-04-28T17:20:02Z</time></trkpt><trkpt lat="45.68178883524653" lon="9.805211674838512"><ele>237.0</ele><time>2026-04-28T17:20:04Z</time></trkpt><trkpt lat="45.681723309788495" lon="9.805232639104148"><ele>236.99999999999997</ele><time>2026-04-28T17:20:06Z</time></trkpt><trkpt lat="45.68165531561348" lon="9.805236742041307"><ele>236.99999999999997</ele><time>2026-04-28T17:20:08Z</time></trkpt><trkpt lat="45.681587635098666" lon="9.805174408874542"><ele>236.66666666666666</ele><time>2026-04-28T17:20:11Z</time></trkpt><trkpt lat="45.681524346821845" lon="9.805148638444896"><ele>236.33333333333331</ele><time>2026-04-28T17:20:14Z</time></trkpt><trkpt lat="45.681445212067274" lon="9.80511838110023"><ele>236.0</ele><time>2026-04-28T17:20:17Z</time></trkpt><trkpt lat="45.68138802565049" lon="9.805058916825708"><ele>235.66666666666666</ele><time>2026-04-28T17:20:18.999Z</time></trkpt><trkpt lat="45.68131518830199" lon="9.804988444445778"><ele>235.33333333333331</ele><time>2026-04-28T17:20:21.999Z</time></trkpt><trkpt lat="45.6812485903502" lon="9.804920807609557"><ele>235.0</ele><time>2026-04-28T17:20:24.999Z</time></trkpt><trkpt lat="45.68117274534883" lon="9.804853023863918"><ele>235.0</ele><time>2026-04-28T17:20:27.999Z</time></trkpt><trkpt lat="45.6810948304131" lon="9.804809190662057"><ele>234.99999999999997</ele><time>2026-04-28T17:20:30.999Z</time></trkpt><trkpt lat="45.68102295200365" lon="9.804794548156039"><ele>235.0</ele><time>2026-04-28T17:20:34.999Z</time></trkpt><trkpt lat="45.68096216303739" lon="9.80476701318681"><ele>235.0</ele><time>2026-04-28T17:20:38.999Z</time></trkpt><trkpt lat="45.68089848340872" lon="9.804740561171062"><ele>234.99999999999997</ele><time>2026-04-28T17:20:42.999Z</time></trkpt><trkpt lat="45.680837708144416" lon="9.804701940926835"><ele>235.0</ele><time>2026-04-28T17:20:46.999Z</time></trkpt><trkpt lat="45.680790868391036" lon="9.804630961142008"><ele>235.0</ele><time>2026-04-28T17:20:50.999Z</time></trkpt><trkpt lat="45.680719035925094" lon="9.804580386109144"><ele>235.0</ele><time>2026-04-28T17:20:55.999Z</time></trkpt><trkpt lat="45.68064819806968" lon="9.804554657253448"><ele>234.99999999999997</ele><time>2026-04-28T17:21:01Z</time></trkpt><trkpt lat="45.680584080851844" lon="9.804534902094542"><ele>235.0</ele><time>2026-04-28T17:21:05Z</time></trkpt><trkpt lat="45.680509309982554" lon="9.804500750155093"><ele>235.0</ele><time>2026-04-28T17:21:09Z</time></trkpt><trkpt lat="45.68045249681839" lon="9.80446166183049"><ele>234.99999999999997</ele><time>2026-04-28T17:21:12Z</time></trkpt><trkpt lat="45.68037994735329" lon="9.804440466320944"><ele>235.0</ele><time>2026-04-28T17:21:16Z</time></trkpt><trkpt lat="45.680304433429306" lon="9.804483937773695"><ele>235.0</ele><time>2026-04-28T17:21:21Z</time></trkpt><trkpt lat="45.680237973523134" lon="9.804475283888346"><ele>234.99999999999997</ele><time>2026-04-28T17:21:24Z</time></trkpt><trkpt lat="45.68025403220682" lon="9.804604570041311"><ele>235.0</ele><time>2026-04-28T17:21:26Z</time></trkpt><trkpt lat="45.68026713514322" lon="9.804725036976803"><ele>235.0</ele><time>2026-04-28T17:21:28Z</time></trkpt><trkpt lat="45.680258932212666" lon="9.804861521015551"><ele>235.0</ele><time>2026-04-28T17:21:31Z</time></trkpt><trkpt lat="45.68028586431154" lon="9.804952952247014"><ele>234.99999999999997</ele><time>2026-04-28T17:21:33Z</time></trkpt><trkpt lat="45.68031495770476" lon="9.805092027132673"><ele>235.0</ele><time>2026-04-28T17:21:35Z</time></trkpt><trkpt lat="45.680326946570375" lon="9.805210737358045"><ele>234.85714285714283</ele><time>2026-04-28T17:21:37Z</time></trkpt><trkpt lat="45.68033306706521" lon="9.805308631328426"><ele>234.7142857142857</ele><time>2026-04-28T17:21:39Z</time></trkpt><trkpt lat="45.680359615488854" lon="9.80539055748644"><ele>234.57142857142856</ele><time>2026-04-28T17:21:41Z</time></trkpt><trkpt lat="45.680404397722604" lon="9.8054935851438"><ele>234.42857142857144</ele><time>2026-04-28T17:21:44Z</time></trkpt><trkpt lat="45.680394729226286" lon="9.805587223196522"><ele>234.2857142857143</ele><time>2026-04-28T17:21:46Z</time></trkpt><trkpt lat="45.68039872205878" lon="9.805705255849585"><ele>234.14285714285717</ele><time>2026-04-28T17:21:49Z</time></trkpt><trkpt lat="45.68041217503398" lon="9.805821341887174"><ele>234.0</ele><time>2026-04-28T17:21:52Z</time></trkpt><trkpt lat="45.68042582593329" lon="9.8059247219697"><ele>234.0</ele><time>2026-04-28T17:21:55Z</time></trkpt><trkpt lat="45.68046277090249" lon="9.8060181371092"><ele>234.00000000000003</ele><time>2026-04-28T17:21:58Z</time></trkpt><trkpt lat="45.68048508723848" lon="9.806132881292687"><ele>234.0</ele><time>2026-04-28T17:22:04Z</time></trkpt><trkpt lat="45.680483190099096" lon="9.80623355435921"><ele>234.0</ele><time>2026-04-28T17:22:09Z</time></trkpt><trkpt lat="45.68049363497841" lon="9.80632266131886"><ele>234.00000000000003</ele><time>2026-04-28T17:22:13Z</time></trkpt><trkpt lat="45.680487776395964" lon="9.806225355307424"><ele>234.0</ele><time>2026-04-28T17:22:16Z</time></trkpt><trkpt lat="45.68046703887555" lon="9.80612403188839"><ele>234.0</ele><time>2026-04-28T17:22:21Z</time></trkpt><trkpt lat="45.680462981400105" lon="9.806015584868547"><ele>234.0</ele><time>2026-04-28T17:22:25.999Z</time></trkpt><trkpt lat="45.680437765636235" lon="9.805910943195776"><ele>234.00000000000003</ele><time>2026-04-28T17:22:29.999Z</time></trkpt><trkpt lat="45.680419750106324" lon="9.805815733964412"><ele>234.0</ele><time>2026-04-28T17:22:33.999Z</time></trkpt><trkpt lat="45.680412569417605" lon="9.80570312817401"><ele>234.0</ele><time>2026-04-28T17:22:38.999Z</time></trkpt><trkpt lat="45.680421089463444" lon="9.805603198101688"><ele>234.00000000000003</ele><time>2026-04-28T17:22:42.999Z</time></trkpt><trkpt lat="45.68038117123912" lon="9.805524549371015"><ele>234.0</ele><time>2026-04-28T17:22:46.999Z</time></trkpt><trkpt lat="45.68036068997752" lon="9.80543055557599"><ele>234.0</ele><time>2026-04-28T17:22:50.999Z</time></trkpt><trkpt lat="45.68035578892245" lon="9.805324494374963"><ele>234.0</ele><time>2026-04-28T17:23:08Z</time></trkpt><trkpt lat="45.68032737360196" lon="9.805242019891853"><ele>234.00000000000003</ele><time>2026-04-28T17:23:12Z</time></trkpt><trkpt lat="45.68026209400331" lon="9.805231294748697"><ele>234.0</ele><time>2026-04-28T17:23:17Z</time></trkpt><trkpt lat="45.680188165303605" lon="9.805308664758275"><ele>234.0</ele><time>2026-04-28T17:23:21Z</time></trkpt><trkpt lat="45.68012095512772" lon="9.805320205709684"><ele>234.00000000000003</ele><time>2026-04-28T17:23:24Z</time></trkpt><trkpt lat="45.68010935718521" lon="9.805426593314982"><ele>234.0</ele><time>2026-04-28T17:23:29Z</time></trkpt><trkpt lat="45.68010319292812" lon="9.805520325758417"><ele>234.0</ele><time>2026-04-28T17:23:33Z</time></trkpt><trkpt lat="45.68008959105399" lon="9.805635243625073"><ele>233.85714285714286</ele><time>2026-04-28T17:23:37Z</time></trkpt><trkpt lat="45.68008764836233" lon="9.80575700172125"><ele>233.71428571428572</ele><time>2026-04-28T17:23:41Z</time></trkpt><trkpt lat="45.6800865893258" lon="9.80584882775895"><ele>233.57142857142858</ele><time>2026-04-28T17:23:45Z</time></trkpt><trkpt lat="45.68006316676246" lon="9.80594330103219"><ele>233.42857142857144</ele><time>2026-04-28T17:23:49Z</time></trkpt><trkpt lat="45.68004664191443" lon="9.806035612285484"><ele>233.28571428571428</ele><time>2026-04-28T17:23:53Z</time></trkpt><trkpt lat="45.680023543565106" lon="9.806157266058966"><ele>233.14285714285717</ele><time>2026-04-28T17:23:57Z</time></trkpt><trkpt lat="45.68001755599897" lon="9.80624779916923"><ele>233.0</ele><time>2026-04-28T17:24:00Z</time></trkpt><trkpt lat="45.68000241770182" lon="9.806367512227252"><ele>233.00000000000003</ele><time>2026-04-28T17:24:03Z</time></trkpt><trkpt lat="45.67997738842165" lon="9.806509801361976"><ele>233.0</ele><time>2026-04-28T17:24:06Z</time></trkpt><trkpt lat="45.67995634233926" lon="9.806625927343475"><ele>233.0</ele><time>2026-04-28T17:24:09Z</time></trkpt><trkpt lat="45.67992399734" lon="9.80675168009968"><ele>233.0</ele><time>2026-04-28T17:24:12Z</time></trkpt><trkpt lat="45.67988408109401" lon="9.806860969987566"><ele>233.00000000000003</ele><time>2026-04-28T17:24:15Z</time></trkpt><trkpt lat="45.67984908371244" lon="9.806960950070808"><ele>233.0</ele><time>2026-04-28T17:24:18Z</time></trkpt><trkpt lat="45.67980573203306" lon="9.807071184253875"><ele>233.00000000000003</ele><time>2026-04-28T17:24:21Z</time></trkpt><trkpt lat="45.67977964294197" lon="9.807154098536579"><ele>233.0</ele><time>2026-04-28T17:24:23Z</time></trkpt><trkpt lat="45.67974032249531" lon="9.807265195716315"><ele>233.0</ele><time>2026-04-28T17:24:26Z</time></trkpt><trkpt lat="45.67969018458596" lon="9.807367414487826"><ele>233.0</ele><time>2026-04-28T17:24:29Z</time></trkpt><trkpt lat="45.67963610627026" lon="9.807462978369271"><ele>233.00000000000003</ele><time>2026-04-28T17:24:31.999Z</time></trkpt><trkpt lat="45.67957793520404" lon="9.807565042785122"><ele>233.0</ele><time>2026-04-28T17:24:34.999Z</time></trkpt><trkpt lat="45.679538002191194" lon="9.807645126975478"><ele>233.33333333333334</ele><time>2026-04-28T17:24:36.999Z</time></trkpt><trkpt lat="45.67948806916636" lon="9.807716783773364"><ele>233.66666666666669</ele><time>2026-04-28T17:24:39.999Z</time></trkpt><trkpt lat="45.67944662304367" lon="9.807809809981558"><ele>234.0</ele><time>2026-04-28T17:24:42.999Z</time></trkpt><trkpt lat="45.679409389637485" lon="9.80793116694221"><ele>234.33333333333331</ele><time>2026-04-28T17:24:45.999Z</time></trkpt><trkpt lat="45.67938283490809" lon="9.808034938353678"><ele>234.66666666666666</ele><time>2026-04-28T17:24:48.999Z</time></trkpt><trkpt lat="45.67937243399477" lon="9.80814142887086"><ele>235.0</ele><time>2026-04-28T17:24:51.999Z</time></trkpt><trkpt lat="45.67936376519805" lon="9.808254776852896"><ele>235.16666666666666</ele><time>2026-04-28T17:24:54.999Z</time></trkpt><trkpt lat="45.67935087779482" lon="9.808354362754867"><ele>235.33333333333331</ele><time>2026-04-28T17:24:57.999Z</time></trkpt><trkpt lat="45.6793256756374" lon="9.808460952838843"><ele>235.5</ele><time>2026-04-28T17:25:00.999Z</time></trkpt><trkpt lat="45.67929639305346" lon="9.808564533076272"><ele>235.66666666666669</ele><time>2026-04-28T17:25:03.999Z</time></trkpt><trkpt lat="45.6792720929784" lon="9.808690637562085"><ele>235.83333333333334</ele><time>2026-04-28T17:25:06.999Z</time></trkpt><trkpt lat="45.67922213300491" lon="9.808749993315526"><ele>236.0</ele><time>2026-04-28T17:25:15Z</time></trkpt><trkpt lat="45.67915750608736" lon="9.808721602323539"><ele>236.14285714285714</ele><time>2026-04-28T17:25:20Z</time></trkpt><trkpt lat="45.67909310617874" lon="9.8087529283308"><ele>236.28571428571428</ele><time>2026-04-28T17:25:25Z</time></trkpt><trkpt lat="45.67902974070439" lon="9.80876647665771"><ele>236.42857142857142</ele><time>2026-04-28T17:25:28Z</time></trkpt><trkpt lat="45.67896211055694" lon="9.808758969964368"><ele>236.57142857142856</ele><time>2026-04-28T17:25:32Z</time></trkpt><trkpt lat="45.67890141180499" lon="9.808719471837057"><ele>236.71428571428572</ele><time>2026-04-28T17:25:36Z</time></trkpt><trkpt lat="45.67883845975115" lon="9.80868900770737"><ele>236.85714285714283</ele><time>2026-04-28T17:25:40Z</time></trkpt><trkpt lat="45.67877641543811" lon="9.80865298796207"><ele>236.99999999999997</ele><time>2026-04-28T17:25:44Z</time></trkpt><trkpt lat="45.67869846496149" lon="9.808628492112135"><ele>237.0</ele><time>2026-04-28T17:25:48Z</time></trkpt><trkpt lat="45.67862281268082" lon="9.80857635386946"><ele>237.0</ele><time>2026-04-28T17:25:51Z</time></trkpt><trkpt lat="45.67854782464301" lon="9.808529575004071"><ele>237.0</ele><time>2026-04-28T17:25:54Z</time></trkpt><trkpt lat="45.678466499755906" lon="9.808485756019829"><ele>237.0</ele><time>2026-04-28T17:25:57Z</time></trkpt><trkpt lat="45.67839510519284" lon="9.808450849300765"><ele>237.0</ele><time>2026-04-28T17:25:59Z</time></trkpt><trkpt lat="45.678315473037635" lon="9.808399326805795"><ele>237.0</ele><time>2026-04-28T17:26:02Z</time></trkpt><trkpt lat="45.67823768603575" lon="9.808348570274527"><ele>236.5</ele><time>2026-04-28T17:26:05Z</time></trkpt><trkpt lat="45.67816587569436" lon="9.8083003056604"><ele>236.0</ele><time>2026-04-28T17:26:08Z</time></trkpt><trkpt lat="45.678090889884814" lon="9.808257388455244"><ele>235.5</ele><time>2026-04-28T17:26:11Z</time></trkpt><trkpt lat="45.67801222500095" lon="9.808195097778363"><ele>235.0</ele><time>2026-04-28T17:26:14Z</time></trkpt><trkpt lat="45.677932383505905" lon="9.808157267615758"><ele>234.5</ele><time>2026-04-28T17:26:17Z</time></trkpt><trkpt lat="45.6778733448557" lon="9.808119769043271"><ele>234.0</ele><time>2026-04-28T17:26:19Z</time></trkpt><trkpt lat="45.67779099473823" lon="9.808063041984918"><ele>233.66666666666666</ele><time>2026-04-28T17:26:22Z</time></trkpt><trkpt lat="45.67771100473049" lon="9.808019607452902"><ele>233.33333333333331</ele><time>2026-04-28T17:26:25Z</time></trkpt><trkpt lat="45.67764570107346" lon="9.80794978398862"><ele>233.0</ele><time>2026-04-28T17:26:28Z</time></trkpt><trkpt lat="45.677571029467465" lon="9.807918172221221"><ele>232.66666666666666</ele><time>2026-04-28T17:26:31Z</time></trkpt><trkpt lat="45.67750114321195" lon="9.807869384641906"><ele>232.33333333333331</ele><time>2026-04-28T17:26:33.999Z</time></trkpt><trkpt lat="45.677441263948474" lon="9.807830968745662"><ele>232.0</ele><time>2026-04-28T17:26:36.999Z</time></trkpt><trkpt lat="45.67738450601524" lon="9.807781199481589"><ele>232.00000000000003</ele><time>2026-04-28T17:26:41.999Z</time></trkpt><trkpt lat="45.677321393969414" lon="9.80774375035195"><ele>232.0</ele><time>2026-04-28T17:26:45.999Z</time></trkpt><trkpt lat="45.67724965652874" lon="9.807720082064082"><ele>232.00000000000003</ele><time>2026-04-28T17:26:49.999Z</time></trkpt><trkpt lat="45.67719402787904" lon="9.807673927964558"><ele>232.00000000000003</ele><time>2026-04-28T17:26:53.999Z</time></trkpt><trkpt lat="45.67712638608693" lon="9.807647191424467"><ele>232.0</ele><time>2026-04-28T17:26:57.999Z</time></trkpt><trkpt lat="45.67705937764218" lon="9.80762344511252"><ele>232.00000000000003</ele><time>2026-04-28T17:27:01.999Z</time></trkpt><trkpt lat="45.67698009207364" lon="9.807586070901992"><ele>232.00000000000003</ele><time>2026-04-28T17:27:06.999Z</time></trkpt><trkpt lat="45.67691536435899" lon="9.807558100053653"><ele>232.00000000000003</ele><time>2026-04-28T17:27:10.999Z</time></trkpt><trkpt lat="45.676858416830896" lon="9.807517850670292"><ele>232.0</ele><time>2026-04-28T17:27:15Z</time></trkpt><trkpt lat="45.67692383739621" lon="9.807559056127758"><ele>232.00000000000003</ele><time>2026-04-28T17:27:26Z</time></trkpt><trkpt lat="45.676992681223446" lon="9.807595487535933"><ele>232.00000000000003</ele><time>2026-04-28T17:27:30Z</time></trkpt><trkpt lat="45.67705221907588" lon="9.807632658609302"><ele>232.0</ele><time>2026-04-28T17:27:34Z</time></trkpt><trkpt lat="45.67712225493927" lon="9.807663329066392"><ele>232.00000000000003</ele><time>2026-04-28T17:27:38Z</time></trkpt><trkpt lat="45.67719674810791" lon="9.807713029985681"><ele>232.00000000000003</ele><time>2026-04-28T17:27:42Z</time></trkpt><trkpt lat="45.67726171265984" lon="9.807756666026089"><ele>232.00000000000003</ele><time>2026-04-28T17:27:46Z</time></trkpt><trkpt lat="45.67733268977616" lon="9.80777838161992"><ele>232.0</ele><time>2026-04-28T17:27:50Z</time></trkpt><trkpt lat="45.677402060568966" lon="9.807817262401768"><ele>232.00000000000003</ele><time>2026-04-28T17:27:54Z</time></trkpt><trkpt lat="45.67743668204748" lon="9.807898734277943"><ele>232.00000000000003</ele><time>2026-04-28T17:27:58Z</time></trkpt><trkpt lat="45.677437633176" lon="9.80800012979957"><ele>232.0</ele><time>2026-04-28T17:28:01Z</time></trkpt><trkpt lat="45.677432947083936" lon="9.808107181726513"><ele>232.00000000000003</ele><time>2026-04-28T17:28:04Z</time></trkpt><trkpt lat="45.67741293354296" lon="9.808206366782336"><ele>232.00000000000003</ele><time>2026-04-28T17:28:06Z</time></trkpt><trkpt lat="45.677409814719844" lon="9.80831209265642"><ele>231.99999999999997</ele><time>2026-04-28T17:28:09Z</time></trkpt><trkpt lat="45.67738089723404" lon="9.80844208864353"><ele>232.0</ele><time>2026-04-28T17:28:12Z</time></trkpt><trkpt lat="45.67735247406348" lon="9.808569973436713"><ele>232.0</ele><time>2026-04-28T17:28:15Z</time></trkpt><trkpt lat="45.677337291579285" lon="9.808689862547865"><ele>232.0</ele><time>2026-04-28T17:28:18Z</time></trkpt><trkpt lat="45.67732266348747" lon="9.808782025446106"><ele>231.99999999999997</ele><time>2026-04-28T17:28:20Z</time></trkpt><trkpt lat="45.67730442163337" lon="9.808900681115018"><ele>232.0</ele><time>2026-04-28T17:28:23Z</time></trkpt><trkpt lat="45.677273914150646" lon="9.809013632320593"><ele>232.16666666666666</ele><time>2026-04-28T17:28:26Z</time></trkpt><trkpt lat="45.677245510413634" lon="9.809129028389108"><ele>232.33333333333331</ele><time>2026-04-28T17:28:29Z</time></trkpt><trkpt lat="45.677212536335816" lon="9.80925322106104"><ele>232.5</ele><time>2026-04-28T17:28:32Z</time></trkpt><trkpt lat="45.67719130554948" lon="9.809379619814267"><ele>232.66666666666669</ele><time>2026-04-28T17:28:35Z</time></trkpt><trkpt lat="45.67717688189194" lon="9.809482120482178"><ele>232.83333333333334</ele><time>2026-04-28T17:28:37.999Z</time></trkpt><trkpt lat="45.67714367913449" lon="9.809583903886246"><ele>233.0</ele><time>2026-04-28T17:28:40.999Z</time></trkpt><trkpt lat="45.67713208061083" lon="9.809713800992816"><ele>233.33333333333334</ele><time>2026-04-28T17:28:43.999Z</time></trkpt><trkpt lat="45.677137034897676" lon="9.809824740556643"><ele>233.66666666666669</ele><time>2026-04-28T17:28:46.999Z</time></trkpt><trkpt lat="45.67714127288489" lon="9.809937792169443"><ele>234.0</ele><time>2026-04-28T17:28:49.999Z</time></trkpt><trkpt lat="45.67713843637226" lon="9.81006506223185"><ele>234.33333333333331</ele><time>2026-04-28T17:28:53.999Z</time></trkpt><trkpt lat="45.67711144471439" lon="9.810172186473622"><ele>234.66666666666666</ele><time>2026-04-28T17:28:56.999Z</time></trkpt><trkpt lat="45.67708765000846" lon="9.810296840441852"><ele>235.0</ele><time>2026-04-28T17:28:59.999Z</time></trkpt><trkpt lat="45.67706063599692" lon="9.810409345082338"><ele>234.99999999999997</ele><time>2026-04-28T17:29:02.999Z</time></trkpt><trkpt lat="45.67702442099555" lon="9.810518222485687"><ele>235.0</ele><time>2026-04-28T17:29:05.999Z</time></trkpt><trkpt lat="45.67699353984439" lon="9.810605999421036"><ele>235.0</ele><time>2026-04-28T17:29:07.999Z</time></trkpt><trkpt lat="45.67695677720701" lon="9.810715402240676"><ele>235.0</ele><time>2026-04-28T17:29:10.999Z</time></trkpt><trkpt lat="45.67692479408531" lon="9.810823838220028"><ele>234.99999999999997</ele><time>2026-04-28T17:29:13.999Z</time></trkpt><trkpt lat="45.676895581715264" lon="9.810935595183185"><ele>235.0</ele><time>2026-04-28T17:29:16.999Z</time></trkpt><trkpt lat="45.6768582226694" lon="9.811027316509781"><ele>234.83333333333331</ele><time>2026-04-28T17:29:19.999Z</time></trkpt><trkpt lat="45.67683972966738" lon="9.811127632948818"><ele>234.66666666666666</ele><time>2026-04-28T17:29:23Z</time></trkpt><trkpt lat="45.67682528290341" lon="9.811216029006891"><ele>234.5</ele><time>2026-04-28T17:29:26Z</time></trkpt><trkpt lat="45.676818796113" lon="9.811342513023034"><ele>234.33333333333331</ele><time>2026-04-28T17:29:29Z</time></trkpt><trkpt lat="45.67682443402035" lon="9.811457435335752"><ele>234.16666666666666</ele><time>2026-04-28T17:29:32Z</time></trkpt><trkpt lat="45.676814298547036" lon="9.811589520573708"><ele>234.0</ele><time>2026-04-28T17:29:35Z</time></trkpt><trkpt lat="45.67680907804256" lon="9.811693491176007"><ele>234.14285714285717</ele><time>2026-04-28T17:29:38Z</time></trkpt><trkpt lat="45.67678932573856" lon="9.811824626837886"><ele>234.2857142857143</ele><time>2026-04-28T17:29:41Z</time></trkpt><trkpt lat="45.67678380509102" lon="9.811931380689598"><ele>234.42857142857144</ele><time>2026-04-28T17:29:44Z</time></trkpt><trkpt lat="45.676772133922384" lon="9.812043738885274"><ele>234.57142857142856</ele><time>2026-04-28T17:29:47Z</time></trkpt><trkpt lat="45.676765451135736" lon="9.81213640963572"><ele>234.7142857142857</ele><time>2026-04-28T17:29:50Z</time></trkpt><trkpt lat="45.67675522869064" lon="9.812230867849918"><ele>234.85714285714283</ele><time>2026-04-28T17:29:54Z</time></trkpt><trkpt lat="45.67674065957439" lon="9.812322809275882"><ele>235.0</ele><time>2026-04-28T17:29:57Z</time></trkpt><trkpt lat="45.67673873944703" lon="9.812442279628497"><ele>235.0</ele><time>2026-04-28T17:30:02Z</time></trkpt><trkpt lat="45.67673021095569" lon="9.812551358124026"><ele>234.99999999999997</ele><time>2026-04-28T17:30:06Z</time></trkpt><trkpt lat="45.67672841511196" lon="9.812661778909952"><ele>235.0</ele><time>2026-04-28T17:30:11Z</time></trkpt><trkpt lat="45.67671722015822" lon="9.812761123518595"><ele>235.0</ele><time>2026-04-28T17:30:15Z</time></trkpt><trkpt lat="45.676705530470294" lon="9.812871141243729"><ele>234.99999999999997</ele><time>2026-04-28T17:30:19Z</time></trkpt><trkpt lat="45.67668725597061" lon="9.812957472386124"><ele>235.0</ele><time>2026-04-28T17:30:22Z</time></trkpt><trkpt lat="45.67667542928132" lon="9.813049130411185"><ele>235.0</ele><time>2026-04-28T17:30:26Z</time></trkpt><trkpt lat="45.67665684338948" lon="9.813136857354113"><ele>235.14285714285714</ele><time>2026-04-28T17:30:30Z</time></trkpt><trkpt lat="45.67664909135006" lon="9.813245411495632"><ele>235.28571428571428</ele><time>2026-04-28T17:30:35Z</time></trkpt><trkpt lat="45.676631947445436" lon="9.813340046767918"><ele>235.42857142857142</ele><time>2026-04-28T17:30:38.999Z</time></trkpt><trkpt lat="45.67662411198553" lon="9.813439524734854"><ele>235.57142857142856</ele><time>2026-04-28T17:30:43.999Z</time></trkpt><trkpt lat="45.67659965983608" lon="9.81354637213865"><ele>235.71428571428572</ele><time>2026-04-28T17:30:47.999Z</time></trkpt><trkpt lat="45.67658064158304" lon="9.813647644181971"><ele>235.85714285714283</ele><time>2026-04-28T17:30:51.999Z</time></trkpt><trkpt lat="45.676567796726346" lon="9.813749650980185"><ele>236.0</ele><time>2026-04-28T17:30:55.999Z</time></trkpt><trkpt lat="45.67655139279244" lon="9.813839417748948"><ele>236.0</ele><time>2026-04-28T17:30:59.999Z</time></trkpt><trkpt lat="45.67654116644187" lon="9.813933510148859"><ele>236.0</ele><time>2026-04-28T17:31:03.999Z</time></trkpt><trkpt lat="45.67651829657275" lon="9.814021157823454"><ele>236.0</ele><time>2026-04-28T17:31:07.999Z</time></trkpt><trkpt lat="45.676508226439765" lon="9.814134076462627"><ele>236.0</ele><time>2026-04-28T17:31:11.999Z</time></trkpt><trkpt lat="45.67649568221731" lon="9.814240224012849"><ele>236.0</ele><time>2026-04-28T17:31:15.999Z</time></trkpt><trkpt lat="45.67649433459566" lon="9.814342694334709"><ele>236.0</ele><time>2026-04-28T17:31:19.999Z</time></trkpt><trkpt lat="45.676476093862846" lon="9.814439282719372"><ele>236.0</ele><time>2026-04-28T17:31:23.999Z</time></trkpt><trkpt lat="45.676455513545065" lon="9.814539621973013"><ele>235.85714285714283</ele><time>2026-04-28T17:31:28Z</time></trkpt><trkpt lat="45.67643184155832" lon="9.814625514895916"><ele>235.71428571428572</ele><time>2026-04-28T17:31:32Z</time></trkpt><trkpt lat="45.676410879387824" lon="9.814713078494352"><ele>235.57142857142856</ele><time>2026-04-28T17:31:36Z</time></trkpt><trkpt lat="45.6764004809708" lon="9.814806598643637"><ele>235.42857142857142</ele><time>2026-04-28T17:31:40Z</time></trkpt><trkpt lat="45.676379080104546" lon="9.814897985257714"><ele>235.28571428571428</ele><time>2026-04-28T17:31:44Z</time></trkpt><trkpt lat="45.676344881907724" lon="9.81500016205011"><ele>235.14285714285714</ele><time>2026-04-28T17:31:48Z</time></trkpt><trkpt lat="45.67633235489908" lon="9.815106547810364"><ele>235.0</ele><time>2026-04-28T17:31:52Z</time></trkpt><trkpt lat="45.676316231717905" lon="9.815214185540846"><ele>235.28571428571428</ele><time>2026-04-28T17:31:56Z</time></trkpt><trkpt lat="45.67629321277633" lon="9.815314940339801"><ele>235.57142857142856</ele><time>2026-04-28T17:32:00Z</time></trkpt><trkpt lat="45.6762931485761" lon="9.815410291193523"><ele>235.85714285714283</ele><time>2026-04-28T17:32:04Z</time></trkpt><trkpt lat="45.67626177318525" lon="9.815502646504017"><ele>236.1428571428571</ele><time>2026-04-28T17:32:07Z</time></trkpt><trkpt lat="45.67626030244949" lon="9.815604000687175"><ele>236.42857142857142</ele><time>2026-04-28T17:32:10Z</time></trkpt><trkpt lat="45.676236602359566" lon="9.815699901322025"><ele>236.71428571428567</ele><time>2026-04-28T17:32:14Z</time></trkpt><trkpt lat="45.676228424268736" lon="9.815797488874736"><ele>236.99999999999997</ele><time>2026-04-28T17:32:18Z</time></trkpt><trkpt lat="45.676251223128745" lon="9.815893553008612"><ele>237.16666666666666</ele><time>2026-04-28T17:32:22Z</time></trkpt><trkpt lat="45.676247625302" lon="9.815989141330604"><ele>237.33333333333331</ele><time>2026-04-28T17:32:27Z</time></trkpt><trkpt lat="45.67618071829248" lon="9.816046667339302"><ele>237.5</ele><time>2026-04-28T17:32:31Z</time></trkpt><trkpt lat="45.67609203656932" lon="9.816079273224947"><ele>237.66666666666666</ele><time>2026-04-28T17:32:35Z</time></trkpt><trkpt lat="45.676028862445676" lon="9.816129355666995"><ele>237.83333333333331</ele><time>2026-04-28T17:32:38Z</time></trkpt><trkpt lat="45.67593881173338" lon="9.816126211317977"><ele>238.0</ele><time>2026-04-28T17:32:40.999Z</time></trkpt><trkpt lat="45.675852479605894" lon="9.816110112083924"><ele>237.66666666666666</ele><time>2026-04-28T17:32:43.999Z</time></trkpt><trkpt lat="45.67575581360895" lon="9.816107835188596"><ele>237.33333333333331</ele><time>2026-04-28T17:32:46.999Z</time></trkpt><trkpt lat="45.675669665073514" lon="9.81613193982132"><ele>237.0</ele><time>2026-04-28T17:32:49.999Z</time></trkpt><trkpt lat="45.67558060410645" lon="9.816119152965735"><ele>236.66666666666669</ele><time>2026-04-28T17:32:52.999Z</time></trkpt><trkpt lat="45.675495543982116" lon="9.81608304435608"><ele>236.33333333333334</ele><time>2026-04-28T17:32:55.999Z</time></trkpt><trkpt lat="45.67542065448313" lon="9.81605791910567"><ele>236.0</ele><time>2026-04-28T17:32:58.999Z</time></trkpt><trkpt lat="45.675350374575444" lon="9.816030738137762"><ele>236.00000000000003</ele><time>2026-04-28T17:33:01.999Z</time></trkpt><trkpt lat="45.67527526111689" lon="9.816004962546096"><ele>236.0</ele><time>2026-04-28T17:33:03.999Z</time></trkpt><trkpt lat="45.675190006944064" lon="9.815965110782912"><ele>236.0</ele><time>2026-04-28T17:33:06.999Z</time></trkpt><trkpt lat="45.67510488229408" lon="9.815932803594379"><ele>236.0</ele><time>2026-04-28T17:33:09.999Z</time></trkpt><trkpt lat="45.675015292567096" lon="9.815909344760563"><ele>236.00000000000003</ele><time>2026-04-28T17:33:12.999Z</time></trkpt><trkpt lat="45.67494010101503" lon="9.815874609114454"><ele>236.0</ele><time>2026-04-28T17:33:15.999Z</time></trkpt><trkpt lat="45.67486414195716" lon="9.81584943981761"><ele>236.00000000000003</ele><time>2026-04-28T17:33:18.999Z</time></trkpt><trkpt lat="45.67477441193095" lon="9.815812361305376"><ele>236.0</ele><time>2026-04-28T17:33:21.999Z</time></trkpt><trkpt lat="45.67470351078476" lon="9.815778356161616"><ele>236.0</ele><time>2026-04-28T17:33:24.999Z</time></trkpt><trkpt lat="45.674624457997176" lon="9.815739644735908"><ele>236.0</ele><time>2026-04-28T17:33:27.999Z</time></trkpt><trkpt lat="45.6745533853451" lon="9.815705384307188"><ele>236.00000000000003</ele><time>2026-04-28T17:33:30.999Z</time></trkpt><trkpt lat="45.67448386305325" lon="9.815655840220863"><ele>236.0</ele><time>2026-04-28T17:33:34Z</time></trkpt><trkpt lat="45.674407073846204" lon="9.815612550954187"><ele>235.33333333333334</ele><time>2026-04-28T17:33:37Z</time></trkpt><trkpt lat="45.6743280461434" lon="9.81560146267579"><ele>234.66666666666669</ele><time>2026-04-28T17:33:40Z</time></trkpt><trkpt lat="45.67424187538871" lon="9.815584248402443"><ele>234.0</ele><time>2026-04-28T17:33:43Z</time></trkpt><trkpt lat="45.674168045775765" lon="9.815570487335432"><ele>233.33333333333331</ele><time>2026-04-28T17:33:46Z</time></trkpt><trkpt lat="45.67408374740655" lon="9.81556700025568"><ele>232.66666666666666</ele><time>2026-04-28T17:33:49Z</time></trkpt><trkpt lat="45.67401366043857" lon="9.815555221450351"><ele>232.0</ele><time>2026-04-28T17:33:53Z</time></trkpt><trkpt lat="45.673938269074846" lon="9.81552147361473"><ele>231.99999999999997</ele><time>2026-04-28T17:33:57Z</time></trkpt><trkpt lat="45.673870302710725" lon="9.815514731733991"><ele>232.0</ele><time>2026-04-28T17:34:03Z</time></trkpt><trkpt lat="45.67379743294159" lon="9.815519527761934"><ele>232.0</ele><time>2026-04-28T17:34:09Z</time></trkpt><trkpt lat="45.673724390461494" lon="9.81550882846777"><ele>232.0</ele><time>2026-04-28T17:34:13Z</time></trkpt><trkpt lat="45.67364012443586" lon="9.815503877939149"><ele>231.99999999999997</ele><time>2026-04-28T17:34:17Z</time></trkpt><trkpt lat="45.67356668295663" lon="9.81548140052686"><ele>232.0</ele><time>2026-04-28T17:34:20Z</time></trkpt><trkpt lat="45.67347671381581" lon="9.815489892311"><ele>232.16666666666666</ele><time>2026-04-28T17:34:23Z</time></trkpt><trkpt lat="45.67339433064603" lon="9.81547048512853"><ele>232.33333333333331</ele><time>2026-04-28T17:34:26Z</time></trkpt><trkpt lat="45.673304093930575" lon="9.815457804631814"><ele>232.5</ele><time>2026-04-28T17:34:29Z</time></trkpt><trkpt lat="45.6732170291434" lon="9.815432750534086"><ele>232.66666666666669</ele><time>2026-04-28T17:34:32Z</time></trkpt><trkpt lat="45.67314019984505" lon="9.815419342930895"><ele>232.83333333333334</ele><time>2026-04-28T17:34:35Z</time></trkpt><trkpt lat="45.673064424771894" lon="9.81539584288675"><ele>233.0</ele><time>2026-04-28T17:34:38Z</time></trkpt><trkpt lat="45.672999488315966" lon="9.815398176212335"><ele>233.00000000000003</ele><time>2026-04-28T17:34:40Z</time></trkpt><trkpt lat="45.67293232409012" lon="9.815410671328342"><ele>233.0</ele><time>2026-04-28T17:34:41.999Z</time></trkpt><trkpt lat="45.67284530756953" lon="9.815423503042345"><ele>233.0</ele><time>2026-04-28T17:34:44.999Z</time></trkpt><trkpt lat="45.67275908616387" lon="9.815430509283635"><ele>233.0</ele><time>2026-04-28T17:34:47.999Z</time></trkpt><trkpt lat="45.67269131336225" lon="9.815438415577653"><ele>233.00000000000003</ele><time>2026-04-28T17:34:49.999Z</time></trkpt><trkpt lat="45.672599822793494" lon="9.815427187672704"><ele>233.0</ele><time>2026-04-28T17:34:52.999Z</time></trkpt><trkpt lat="45.67252976908618" lon="9.815402915887223"><ele>233.16666666666669</ele><time>2026-04-28T17:34:54.999Z</time></trkpt><trkpt lat="45.672454977193034" lon="9.81536705268723"><ele>233.33333333333334</ele><time>2026-04-28T17:34:57.999Z</time></trkpt><trkpt lat="45.672372518296264" lon="9.81531933632358"><ele>233.5</ele><time>2026-04-28T17:35:00.999Z</time></trkpt><trkpt lat="45.67228497311066" lon="9.815287450004687"><ele>233.66666666666669</ele><time>2026-04-28T17:35:03.999Z</time></trkpt><trkpt lat="45.67221609474186" lon="9.815240131315704"><ele>233.83333333333334</ele><time>2026-04-28T17:35:06.999Z</time></trkpt><trkpt lat="45.67212765351637" lon="9.81519633788631"><ele>234.0</ele><time>2026-04-28T17:35:09.999Z</time></trkpt><trkpt lat="45.67204587846579" lon="9.815157412446334"><ele>234.0</ele><time>2026-04-28T17:35:12.999Z</time></trkpt><trkpt lat="45.671980661810764" lon="9.81513484788323"><ele>234.00000000000003</ele><time>2026-04-28T17:35:15.999Z</time></trkpt><trkpt lat="45.67193495569174" lon="9.815062661904625"><ele>234.0</ele><time>2026-04-28T17:35:21.999Z</time></trkpt><trkpt lat="45.67196150706002" lon="9.814963513979302"><ele>234.0</ele><time>2026-04-28T17:35:26.999Z</time></trkpt><trkpt lat="45.67200030922198" lon="9.81488199535272"><ele>234.00000000000003</ele><time>2026-04-28T17:35:31.999Z</time></trkpt><trkpt lat="45.672033214226715" lon="9.814797165586342"><ele>234.0</ele><time>2026-04-28T17:35:34.999Z</time></trkpt><trkpt lat="45.67206384738621" lon="9.814701944457806"><ele>234.0</ele><time>2026-04-28T17:35:39Z</time></trkpt><trkpt lat="45.67208875859549" lon="9.814609657266448"><ele>234.0</ele><time>2026-04-28T17:35:43Z</time></trkpt><trkpt lat="45.672116243831184" lon="9.814525406677786"><ele>234.0</ele><time>2026-04-28T17:35:47Z</time></trkpt><trkpt lat="45.67215814925578" lon="9.814423292799079"><ele>234.0</ele><time>2026-04-28T17:35:52Z</time></trkpt><trkpt lat="45.67218621380461" lon="9.814320568270555"><ele>234.0</ele><time>2026-04-28T17:35:56Z</time></trkpt><trkpt lat="45.67217285101226" lon="9.814208389377916"><ele>234.0</ele><time>2026-04-28T17:36:00Z</time></trkpt><trkpt lat="45.672122913451055" lon="9.814118546379092"><ele>234.0</ele><time>2026-04-28T17:36:04Z</time></trkpt><trkpt lat="45.672075601329794" lon="9.81404525874751"><ele>234.0</ele><time>2026-04-28T17:36:08Z</time></trkpt><trkpt lat="45.67206641299788" lon="9.813947353304302"><ele>234.00000000000003</ele><time>2026-04-28T17:36:12Z</time></trkpt><trkpt lat="45.67209006455694" lon="9.813843983995408"><ele>234.0</ele><time>2026-04-28T17:36:17Z</time></trkpt><trkpt lat="45.67211703059428" lon="9.813753830435148"><ele>234.0</ele><time>2026-04-28T17:36:21Z</time></trkpt><trkpt lat="45.67213618186435" lon="9.81365465915987"><ele>234.00000000000003</ele><time>2026-04-28T17:36:25Z</time></trkpt><trkpt lat="45.6721616963689" lon="9.813551291856305"><ele>234.0</ele><time>2026-04-28T17:36:31Z</time></trkpt><trkpt lat="45.67216351334514" lon="9.81344920747271"><ele>234.0</ele><time>2026-04-28T17:36:35Z</time></trkpt><trkpt lat="45.672211098110296" lon="9.813360067123043"><ele>234.0</ele><time>2026-04-28T17:36:39Z</time></trkpt><trkpt lat="45.6722527687373" lon="9.813258619910574"><ele>234.00000000000003</ele><time>2026-04-28T17:36:42.999Z</time></trkpt><trkpt lat="45.67228487314861" lon="9.813161156993692"><ele>234.0</ele><time>2026-04-28T17:36:47.999Z</time></trkpt><trkpt lat="45.67230543525144" lon="9.813055084164597"><ele>234.0</ele><time>2026-04-28T17:36:52.999Z</time></trkpt><trkpt lat="45.67234607421608" lon="9.812967026019232"><ele>234.00000000000003</ele><time>2026-04-28T17:36:56.999Z</time></trkpt><trkpt lat="45.67238881062334" lon="9.812875481890615"><ele>234.0</ele><time>2026-04-28T17:37:00.999Z</time></trkpt><trkpt lat="45.67241180335827" lon="9.812790854986616"><ele>234.0</ele><time>2026-04-28T17:37:03.999Z</time></trkpt><trkpt lat="45.67244669120405" lon="9.812689211506719"><ele>233.83333333333334</ele><time>2026-04-28T17:37:07.999Z</time></trkpt><trkpt lat="45.67247974299031" lon="9.812600113737602"><ele>233.66666666666669</ele><time>2026-04-28T17:37:10.999Z</time></trkpt><trkpt lat="45.67250607909734" lon="9.812505842477021"><ele>233.5</ele><time>2026-04-28T17:37:13.999Z</time></trkpt><trkpt lat="45.67254062560753" lon="9.812403072710033"><ele>233.33333333333334</ele><time>2026-04-28T17:37:16.999Z</time></trkpt><trkpt lat="45.67257537042313" lon="9.812285653046324"><ele>233.16666666666669</ele><time>2026-04-28T17:37:19.999Z</time></trkpt><trkpt lat="45.672613448225604" lon="9.812179341276767"><ele>233.0</ele><time>2026-04-28T17:37:22.999Z</time></trkpt><trkpt lat="45.672654528236016" lon="9.812064474754125"><ele>233.00000000000003</ele><time>2026-04-28T17:37:25.999Z</time></trkpt><trkpt lat="45.6726923749005" lon="9.811965553998466"><ele>233.0</ele><time>2026-04-28T17:37:28.999Z</time></trkpt><trkpt lat="45.67272495877096" lon="9.811869301956433"><ele>233.0</ele><time>2026-04-28T17:37:31.999Z</time></trkpt><trkpt lat="45.672765439408074" lon="9.811769732441453"><ele>233.0</ele><time>2026-04-28T17:37:34.999Z</time></trkpt><trkpt lat="45.67280172505751" lon="9.811648358248304"><ele>233.00000000000003</ele><time>2026-04-28T17:37:37.999Z</time></trkpt><trkpt lat="45.67283461092922" lon="9.81155398631389"><ele>233.0</ele><time>2026-04-28T17:37:40.999Z</time></trkpt><trkpt lat="45.67287514789904" lon="9.811455644826571"><ele>232.83333333333334</ele><time>2026-04-28T17:37:43.999Z</time></trkpt><trkpt lat="45.67290807089255" lon="9.811355451155958"><ele>232.66666666666669</ele><time>2026-04-28T17:37:47Z</time></trkpt><trkpt lat="45.67295467242081" lon="9.8112629492793"><ele>232.5</ele><time>2026-04-28T17:37:50Z</time></trkpt><trkpt lat="45.672988856998565" lon="9.8111495701031"><ele>232.33333333333331</ele><time>2026-04-28T17:37:53Z</time></trkpt><trkpt lat="45.67303215041678" lon="9.81105805379719"><ele>232.16666666666666</ele><time>2026-04-28T17:37:56Z</time></trkpt><trkpt lat="45.673072195390446" lon="9.810961173395983"><ele>232.0</ele><time>2026-04-28T17:37:59Z</time></trkpt><trkpt lat="45.67311010041067" lon="9.810857449015524"><ele>231.99999999999997</ele><time>2026-04-28T17:38:02Z</time></trkpt><trkpt lat="45.67313849656434" lon="9.81076299009945"><ele>232.0</ele><time>2026-04-28T17:38:05Z</time></trkpt><trkpt lat="45.67316734387613" lon="9.810657719579797"><ele>232.0</ele><time>2026-04-28T17:38:08Z</time></trkpt><trkpt lat="45.67320614294678" lon="9.810558572420856"><ele>232.0</ele><time>2026-04-28T17:38:11Z</time></trkpt><trkpt lat="45.673239294320325" lon="9.810441687570833"><ele>231.99999999999997</ele><time>2026-04-28T17:38:14Z</time></trkpt><trkpt lat="45.67327619803009" lon="9.81034993174679"><ele>232.0</ele><time>2026-04-28T17:38:17Z</time></trkpt><trkpt lat="45.67329959511877" lon="9.810250746828052"><ele>232.00000000000003</ele><time>2026-04-28T17:38:20Z</time></trkpt><trkpt lat="45.67333677931211" lon="9.810154381725903"><ele>232.0</ele><time>2026-04-28T17:38:23Z</time></trkpt><trkpt lat="45.67337286567304" lon="9.81006441269748"><ele>232.00000000000003</ele><time>2026-04-28T17:38:26Z</time></trkpt><trkpt lat="45.673398955967365" lon="9.809966155569214"><ele>232.00000000000003</ele><time>2026-04-28T17:38:29Z</time></trkpt><trkpt lat="45.673428268743635" lon="9.809865662660107"><ele>232.0</ele><time>2026-04-28T17:38:32Z</time></trkpt><trkpt lat="45.673462258425054" lon="9.809771745469591"><ele>232.00000000000003</ele><time>2026-04-28T17:38:35Z</time></trkpt><trkpt lat="45.67349170747604" lon="9.809671828724117"><ele>232.00000000000003</ele><time>2026-04-28T17:38:38Z</time></trkpt><trkpt lat="45.67351975186423" lon="9.809575808609111"><ele>232.00000000000003</ele><time>2026-04-28T17:38:41Z</time></trkpt><trkpt lat="45.673552667300434" lon="9.809479013133487"><ele>232.0</ele><time>2026-04-28T17:38:44Z</time></trkpt><trkpt lat="45.67358943201771" lon="9.809393105526604"><ele>232.00000000000003</ele><time>2026-04-28T17:38:46.999Z</time></trkpt><trkpt lat="45.67361348663458" lon="9.80928222233286"><ele>232.00000000000003</ele><time>2026-04-28T17:38:49.999Z</time></trkpt><trkpt lat="45.67364748345152" lon="9.809183417127644"><ele>232.0</ele><time>2026-04-28T17:38:52.999Z</time></trkpt><trkpt lat="45.67368453948825" lon="9.809098210204343"><ele>232.00000000000003</ele><time>2026-04-28T17:38:55.999Z</time></trkpt><trkpt lat="45.67370660169754" lon="9.808998665556777"><ele>232.00000000000003</ele><time>2026-04-28T17:38:58.999Z</time></trkpt><trkpt lat="45.67373081325014" lon="9.80890375005447"><ele>232.00000000000003</ele><time>2026-04-28T17:39:01.999Z</time></trkpt><trkpt lat="45.6737615647613" lon="9.80880844259822"><ele>232.0</ele><time>2026-04-28T17:39:04.999Z</time></trkpt><trkpt lat="45.67378640160687" lon="9.808714969741985"><ele>232.00000000000003</ele><time>2026-04-28T17:39:07.999Z</time></trkpt><trkpt lat="45.673812747311665" lon="9.808611668659955"><ele>232.00000000000003</ele><time>2026-04-28T17:39:10.999Z</time></trkpt><trkpt lat="45.67384037033767" lon="9.808523478692377"><ele>232.0</ele><time>2026-04-28T17:39:13.999Z</time></trkpt><trkpt lat="45.67386759486025" lon="9.808429433908334"><ele>232.00000000000003</ele><time>2026-04-28T17:39:16.999Z</time></trkpt><trkpt lat="45.67390468280197" lon="9.808330876095543"><ele>232.00000000000003</ele><time>2026-04-28T17:39:19.999Z</time></trkpt><trkpt lat="45.67394207211209" lon="9.80821461714193"><ele>231.8571428571429</ele><time>2026-04-28T17:39:23.999Z</time></trkpt><trkpt lat="45.67397702001179" lon="9.808123043334069"><ele>231.71428571428572</ele><time>2026-04-28T17:39:26.999Z</time></trkpt><trkpt lat="45.674011976862054" lon="9.808022894461246"><ele>231.57142857142858</ele><time>2026-04-28T17:39:29.999Z</time></trkpt><trkpt lat="45.67404768747303" lon="9.807939051479995"><ele>231.42857142857144</ele><time>2026-04-28T17:39:32.999Z</time></trkpt><trkpt lat="45.67408083596337" lon="9.80784960248801"><ele>231.28571428571428</ele><time>2026-04-28T17:39:35.999Z</time></trkpt><trkpt lat="45.674116016356805" lon="9.807754400497295"><ele>231.14285714285714</ele><time>2026-04-28T17:39:38.999Z</time></trkpt><trkpt lat="45.67416079305113" lon="9.807655214464395"><ele>231.0</ele><time>2026-04-28T17:39:41.999Z</time></trkpt><trkpt lat="45.67421332926002" lon="9.8075615637127"><ele>230.85714285714286</ele><time>2026-04-28T17:39:44.999Z</time></trkpt><trkpt lat="45.674242111539" lon="9.80746491939851"><ele>230.71428571428572</ele><time>2026-04-28T17:39:47.999Z</time></trkpt><trkpt lat="45.67427695956256" lon="9.807363129748884"><ele>230.57142857142856</ele><time>2026-04-28T17:39:51Z</time></trkpt><trkpt lat="45.67431243302384" lon="9.807262261422643"><ele>230.42857142857142</ele><time>2026-04-28T17:39:54Z</time></trkpt><trkpt lat="45.674330726782" lon="9.807175397103856"><ele>230.28571428571428</ele><time>2026-04-28T17:39:56Z</time></trkpt><trkpt lat="45.67435536663292" lon="9.807079905127281"><ele>230.1428571428571</ele><time>2026-04-28T17:39:59Z</time></trkpt><trkpt lat="45.674382461342546" lon="9.806985066196916"><ele>229.99999999999997</ele><time>2026-04-28T17:40:02Z</time></trkpt><trkpt lat="45.67441547049309" lon="9.80689182048745"><ele>230.16666666666669</ele><time>2026-04-28T17:40:05Z</time></trkpt><trkpt lat="45.67445864629048" lon="9.80680231475634"><ele>230.33333333333334</ele><time>2026-04-28T17:40:08Z</time></trkpt><trkpt lat="45.67448737953323" lon="9.806710617140576"><ele>230.5</ele><time>2026-04-28T17:40:11Z</time></trkpt><trkpt lat="45.67451823521769" lon="9.806607237240746"><ele>230.66666666666669</ele><time>2026-04-28T17:40:14Z</time></trkpt><trkpt lat="45.67454368950918" lon="9.806506078671209"><ele>230.83333333333334</ele><time>2026-04-28T17:40:17Z</time></trkpt><trkpt lat="45.67457023103077" lon="9.806379654766374"><ele>231.0</ele><time>2026-04-28T17:40:20Z</time></trkpt><trkpt lat="45.67458476958865" lon="9.806288851890624"><ele>231.0</ele><time>2026-04-28T17:40:22Z</time></trkpt><trkpt lat="45.67462544014374" lon="9.80618508276977"><ele>231.0</ele><time>2026-04-28T17:40:26Z</time></trkpt><trkpt lat="45.67465409515508" lon="9.806088169245575"><ele>231.0</ele><time>2026-04-28T17:40:29Z</time></trkpt><trkpt lat="45.67468010794238" lon="9.805997920463646"><ele>231.0</ele><time>2026-04-28T17:40:32Z</time></trkpt><trkpt lat="45.67469549823158" lon="9.805903505469805"><ele>231.0</ele><time>2026-04-28T17:40:35Z</time></trkpt><trkpt lat="45.67473383357661" lon="9.80582602904951"><ele>231.0</ele><time>2026-04-28T17:40:38Z</time></trkpt><trkpt lat="45.674764360536514" lon="9.805730355270093"><ele>231.0</ele><time>2026-04-28T17:40:41Z</time></trkpt><trkpt lat="45.67477655930173" lon="9.805614440961685"><ele>230.71428571428572</ele><time>2026-04-28T17:40:44Z</time></trkpt><trkpt lat="45.67479380024174" lon="9.805513630602695"><ele>230.42857142857144</ele><time>2026-04-28T17:40:47Z</time></trkpt><trkpt lat="45.67482671882282" lon="9.805425447079294"><ele>230.14285714285714</ele><time>2026-04-28T17:40:50Z</time></trkpt><trkpt lat="45.674852309011506" lon="9.805336254025534"><ele>229.85714285714286</ele><time>2026-04-28T17:40:52.999Z</time></trkpt><trkpt lat="45.67488378199326" lon="9.805241849507683"><ele>229.57142857142858</ele><time>2026-04-28T17:40:55.999Z</time></trkpt><trkpt lat="45.67491017082061" lon="9.805147757965909"><ele>229.28571428571428</ele><time>2026-04-28T17:40:58.999Z</time></trkpt><trkpt lat="45.67494265377558" lon="9.805057988160975"><ele>229.0</ele><time>2026-04-28T17:41:01.999Z</time></trkpt><trkpt lat="45.67496971998666" lon="9.804952316233466"><ele>228.83333333333331</ele><time>2026-04-28T17:41:04.999Z</time></trkpt><trkpt lat="45.67498669151719" lon="9.804844511128687"><ele>228.66666666666666</ele><time>2026-04-28T17:41:07.999Z</time></trkpt><trkpt lat="45.67500252523731" lon="9.804749680220729"><ele>228.5</ele><time>2026-04-28T17:41:10.999Z</time></trkpt><trkpt lat="45.67504377901371" lon="9.804618541992673"><ele>228.33333333333331</ele><time>2026-04-28T17:41:14.999Z</time></trkpt><trkpt lat="45.675077624816154" lon="9.804519868386366"><ele>228.16666666666666</ele><time>2026-04-28T17:41:17.999Z</time></trkpt><trkpt lat="45.67508422035913" lon="9.804394679734129"><ele>228.0</ele><time>2026-04-28T17:41:20.999Z</time></trkpt><trkpt lat="45.67510027379921" lon="9.804291006975381"><ele>228.0</ele><time>2026-04-28T17:41:23.999Z</time></trkpt><trkpt lat="45.67513541026815" lon="9.804202009233867"><ele>228.0</ele><time>2026-04-28T17:41:26.999Z</time></trkpt><trkpt lat="45.67515723467247" lon="9.804114269366869"><ele>228.0</ele><time>2026-04-28T17:41:29.999Z</time></trkpt><trkpt lat="45.675196893626875" lon="9.804029498694247"><ele>228.0</ele><time>2026-04-28T17:41:32.999Z</time></trkpt><trkpt lat="45.67522914932172" lon="9.803923950721845"><ele>228.0</ele><time>2026-04-28T17:41:35.999Z</time></trkpt><trkpt lat="45.67526643241394" lon="9.803822166783684"><ele>228.0</ele><time>2026-04-28T17:41:38.999Z</time></trkpt><trkpt lat="45.675304924075235" lon="9.803714343320177"><ele>228.16666666666666</ele><time>2026-04-28T17:41:41.999Z</time></trkpt><trkpt lat="45.675318135006584" lon="9.803619686190553"><ele>228.33333333333331</ele><time>2026-04-28T17:41:44.999Z</time></trkpt><trkpt lat="45.675343697936185" lon="9.803523697867016"><ele>228.5</ele><time>2026-04-28T17:41:47.999Z</time></trkpt><trkpt lat="45.67536396908197" lon="9.803415459645313"><ele>228.66666666666666</ele><time>2026-04-28T17:41:50.999Z</time></trkpt><trkpt lat="45.67539341864908" lon="9.803297963387989"><ele>228.83333333333331</ele><time>2026-04-28T17:41:53.999Z</time></trkpt><trkpt lat="45.675416922328935" lon="9.803204981923047"><ele>229.0</ele><time>2026-04-28T17:41:55.999Z</time></trkpt><trkpt lat="45.6754494322737" lon="9.803092852989932"><ele>228.83333333333331</ele><time>2026-04-28T17:41:59Z</time></trkpt><trkpt lat="45.67548383971449" lon="9.802976255267984"><ele>228.66666666666666</ele><time>2026-04-28T17:42:02Z</time></trkpt><trkpt lat="45.67551401577008" lon="9.802892217791046"><ele>228.5</ele><time>2026-04-28T17:42:04Z</time></trkpt><trkpt lat="45.67554156287798" lon="9.80277326254542"><ele>228.33333333333331</ele><time>2026-04-28T17:42:07Z</time></trkpt><trkpt lat="45.675594355403305" lon="9.802664439184579"><ele>228.16666666666666</ele><time>2026-04-28T17:42:10Z</time></trkpt><trkpt lat="45.67566196065116" lon="9.802616569690706"><ele>228.0</ele><time>2026-04-28T17:42:14Z</time></trkpt><trkpt lat="45.67572389936977" lon="9.802649646896961"><ele>227.85714285714283</ele><time>2026-04-28T17:42:19Z</time></trkpt><trkpt lat="45.67579492875049" lon="9.802687002831048"><ele>227.7142857142857</ele><time>2026-04-28T17:42:24Z</time></trkpt><trkpt lat="45.675860164328384" lon="9.802701913532502"><ele>227.57142857142856</ele><time>2026-04-28T17:42:28Z</time></trkpt><trkpt lat="45.67593079502158" lon="9.802722652885118"><ele>227.42857142857144</ele><time>2026-04-28T17:42:34Z</time></trkpt><trkpt lat="45.67599625442165" lon="9.802737187189067"><ele>227.2857142857143</ele><time>2026-04-28T17:42:38Z</time></trkpt><trkpt lat="45.67605899687299" lon="9.802753970501072"><ele>227.14285714285717</ele><time>2026-04-28T17:42:42Z</time></trkpt><trkpt lat="45.67613050443732" lon="9.802778745860989"><ele>227.0</ele><time>2026-04-28T17:42:47Z</time></trkpt><trkpt lat="45.67620653348032" lon="9.802794846852041"><ele>230.0</ele><time>2026-04-28T17:42:52Z</time></trkpt><trkpt lat="45.676279896311414" lon="9.8028169101382"><ele>230.0</ele><time>2026-04-28T17:42:56.999Z</time></trkpt></trkseg></trk></gpx>